createdAt,value
2023-04-30T00:00:16.199Z,2.92
2023-04-30T00:01:18.300Z,2.67
2023-04-30T00:02:20.439Z,1.60
2023-04-30T00:03:24.496Z,1.30
2023-04-30T00:04:26.493Z,1.23
2023-04-30T00:05:28.373Z,1.10
2023-04-30T00:06:31.140Z,0.82
2023-04-30T00:07:33.034Z,1.00
2023-04-30T00:08:35.170Z,0.85
2023-04-30T00:09:36.969Z,0.95
2023-04-30T00:10:38.722Z,1.00
2023-04-30T00:11:40.585Z,0.82
2023-04-30T00:12:42.546Z,1.00
2023-04-30T00:13:44.408Z,0.80
2023-04-30T00:14:46.268Z,1.10
2023-04-30T00:15:48.081Z,0.85
2023-04-30T00:16:49.923Z,1.20
2023-04-30T00:17:53.166Z,1.20
2023-04-30T00:18:55.098Z,1.10
2023-04-30T00:19:57.041Z,0.80
2023-04-30T00:20:59.024Z,0.90
2023-04-30T00:22:05.338Z,1.00
2023-04-30T00:23:07.128Z,0.70
2023-04-30T00:24:08.961Z,0.95
2023-04-30T00:25:11.318Z,0.70
2023-04-30T00:26:13.224Z,1.00
2023-04-30T00:27:15.260Z,0.93
2023-04-30T00:28:17.055Z,1.20
2023-04-30T00:29:18.934Z,1.02
2023-04-30T00:30:20.811Z,0.90
2023-04-30T00:31:22.765Z,0.90
2023-04-30T00:32:24.835Z,1.05
2023-04-30T00:33:26.738Z,0.90
2023-04-30T00:34:28.670Z,0.90
2023-04-30T00:35:30.548Z,0.70
2023-04-30T00:36:32.364Z,0.90
2023-04-30T00:37:34.248Z,1.00
2023-04-30T00:38:36.002Z,1.10
2023-04-30T00:39:37.890Z,1.10
2023-04-30T00:40:42.410Z,0.90
2023-04-30T00:41:44.391Z,1.05
2023-04-30T00:42:46.279Z,1.08
2023-04-30T00:43:48.139Z,1.00
2023-04-30T00:44:49.975Z,0.80
2023-04-30T00:45:51.889Z,0.88
2023-04-30T00:46:53.730Z,0.90
2023-04-30T00:47:55.906Z,0.80
2023-04-30T00:48:58.208Z,0.90
2023-04-30T00:50:00.459Z,0.90
2023-04-30T00:51:04.403Z,1.10
2023-04-30T00:52:06.506Z,0.77
2023-04-30T00:53:08.472Z,0.98
2023-04-30T00:54:11.343Z,0.93
2023-04-30T00:55:14.696Z,1.00
2023-04-30T00:56:16.616Z,0.90
2023-04-30T00:57:20.436Z,0.88
2023-04-30T00:58:23.098Z,0.93
2023-04-30T00:59:25.333Z,0.80
2023-04-30T01:00:27.949Z,0.80
2023-04-30T01:01:30.036Z,1.00
2023-04-30T01:02:32.410Z,0.77
2023-04-30T01:03:36.370Z,0.80
2023-04-30T01:04:39.434Z,1.02
2023-04-30T01:05:41.602Z,1.10
2023-04-30T01:06:43.913Z,0.98
2023-04-30T01:07:46.416Z,0.80
2023-04-30T01:08:49.623Z,0.90
2023-04-30T01:09:51.579Z,1.05
2023-04-30T01:11:28.912Z,0.90
2023-04-30T01:13:01.853Z,0.90
2023-04-30T01:14:17.682Z,0.85
2023-04-30T01:15:42.955Z,0.70
2023-04-30T01:16:57.409Z,0.80
2023-04-30T01:18:18.534Z,1.02
2023-04-30T01:19:38.264Z,0.75
2023-04-30T01:20:53.044Z,0.70
2023-04-30T01:22:01.783Z,0.77
2023-04-30T01:24:00.065Z,1.10
2023-04-30T01:25:08.089Z,1.00
2023-04-30T01:26:22.453Z,0.95
2023-04-30T01:27:48.046Z,1.05
2023-04-30T01:28:53.256Z,0.85
2023-04-30T01:29:56.827Z,0.93
2023-04-30T01:30:59.049Z,0.70
2023-04-30T01:32:02.531Z,0.68
2023-04-30T01:33:04.610Z,0.90
2023-04-30T01:34:06.471Z,0.70
2023-04-30T01:35:08.770Z,0.80
2023-04-30T01:36:16.018Z,0.73
2023-04-30T01:38:16.459Z,0.90
2023-04-30T01:39:41.937Z,1.05
2023-04-30T01:41:17.335Z,0.65
2023-04-30T01:42:36.935Z,0.90
2023-04-30T01:43:53.061Z,0.68
2023-04-30T01:45:28.175Z,0.80
2023-04-30T01:46:31.107Z,0.90
2023-04-30T01:47:56.606Z,0.77
2023-04-30T01:49:13.290Z,0.88
2023-04-30T01:50:34.711Z,1.00
2023-04-30T01:51:45.849Z,0.88
2023-04-30T01:52:53.872Z,0.73
2023-04-30T01:54:13.086Z,0.80
2023-04-30T01:55:24.273Z,0.70
2023-04-30T01:56:40.029Z,0.70
2023-04-30T01:57:55.809Z,0.63
2023-04-30T01:58:59.371Z,0.75
2023-04-30T02:00:01.583Z,0.85
2023-04-30T02:01:03.672Z,1.23
2023-04-30T02:02:06.879Z,0.60
2023-04-30T02:03:09.006Z,0.60
2023-04-30T02:04:11.183Z,0.85
2023-04-30T02:05:12.997Z,0.82
2023-04-30T02:06:14.879Z,0.82
2023-04-30T02:07:39.724Z,0.77
2023-04-30T02:08:41.548Z,1.00
2023-04-30T02:09:43.366Z,0.70
2023-04-30T02:10:45.186Z,0.90
2023-04-30T02:11:47.050Z,1.00
2023-04-30T02:12:49.299Z,0.90
2023-04-30T02:13:51.499Z,0.80
2023-04-30T02:14:53.358Z,0.80
2023-04-30T02:15:55.564Z,0.73
2023-04-30T02:16:57.456Z,0.77
2023-04-30T02:17:59.431Z,0.90
2023-04-30T02:19:02.434Z,0.82
2023-04-30T02:20:05.204Z,0.60
2023-04-30T02:21:07.000Z,0.80
2023-04-30T02:22:08.859Z,0.70
2023-04-30T02:23:10.660Z,0.73
2023-04-30T02:24:12.572Z,0.82
2023-04-30T02:25:14.496Z,0.85
2023-04-30T02:26:16.530Z,0.88
2023-04-30T02:27:18.555Z,0.82
2023-04-30T02:28:20.398Z,0.70
2023-04-30T02:29:22.382Z,0.80
2023-04-30T02:30:24.247Z,0.60
2023-04-30T02:31:26.072Z,0.70
2023-04-30T02:32:28.077Z,0.77
2023-04-30T02:33:30.031Z,0.80
2023-04-30T02:34:31.807Z,0.70
2023-04-30T02:35:33.648Z,0.80
2023-04-30T02:36:36.700Z,0.73
2023-04-30T02:37:38.715Z,0.73
2023-04-30T02:38:40.563Z,0.50
2023-04-30T02:39:42.501Z,1.00
2023-04-30T02:40:44.490Z,0.73
2023-04-30T02:41:46.315Z,0.70
2023-04-30T02:42:48.375Z,0.90
2023-04-30T02:43:50.278Z,0.68
2023-04-30T02:44:52.162Z,0.80
2023-04-30T02:45:54.186Z,0.70
2023-04-30T02:46:56.172Z,0.80
2023-04-30T02:47:58.093Z,0.63
2023-04-30T02:48:59.941Z,0.80
2023-04-30T02:50:01.825Z,0.80
2023-04-30T02:51:04.598Z,0.68
2023-04-30T02:52:09.488Z,0.75
2023-04-30T02:53:11.354Z,0.90
2023-04-30T02:54:13.132Z,0.65
2023-04-30T02:55:15.142Z,0.65
2023-04-30T02:56:16.928Z,0.77
2023-04-30T02:57:18.780Z,0.80
2023-04-30T02:58:20.788Z,1.00
2023-04-30T02:59:22.590Z,0.80
2023-04-30T03:00:24.466Z,0.70
2023-04-30T03:01:26.479Z,0.80
2023-04-30T03:02:28.397Z,0.90
2023-04-30T03:03:30.355Z,0.85
2023-04-30T03:04:32.265Z,0.65
2023-04-30T03:05:34.114Z,0.60
2023-04-30T03:06:36.227Z,0.80
2023-04-30T03:07:38.161Z,0.60
2023-04-30T03:08:40.034Z,0.80
2023-04-30T03:09:42.037Z,0.70
2023-04-30T03:10:43.856Z,0.80
2023-04-30T03:11:45.737Z,0.80
2023-04-30T03:12:47.576Z,1.00
2023-04-30T03:13:52.825Z,0.70
2023-04-30T03:14:54.723Z,0.73
2023-04-30T03:16:06.800Z,0.60
2023-04-30T03:17:08.623Z,0.85
2023-04-30T03:18:11.140Z,0.75
2023-04-30T03:19:13.006Z,0.80
2023-04-30T03:20:14.933Z,0.65
2023-04-30T03:21:16.749Z,0.90
2023-04-30T03:22:23.648Z,0.63
2023-04-30T03:23:28.682Z,0.80
2023-04-30T03:24:30.779Z,0.70
2023-04-30T03:25:32.620Z,0.70
2023-04-30T03:26:34.550Z,0.80
2023-04-30T03:27:36.359Z,0.77
2023-04-30T03:28:38.181Z,0.70
2023-04-30T03:29:39.962Z,0.52
2023-04-30T03:30:41.970Z,0.87
2023-04-30T03:31:43.927Z,0.77
2023-04-30T03:32:45.842Z,0.90
2023-04-30T03:33:47.758Z,0.75
2023-04-30T03:34:50.745Z,0.90
2023-04-30T03:35:53.427Z,0.90
2023-04-30T03:36:55.388Z,0.82
2023-04-30T03:37:57.203Z,0.80
2023-04-30T03:38:59.046Z,0.83
2023-04-30T03:40:01.031Z,0.77
2023-04-30T03:41:03.700Z,0.70
2023-04-30T03:42:05.615Z,0.80
2023-04-30T03:43:07.459Z,0.80
2023-04-30T03:44:15.573Z,0.80
2023-04-30T03:45:17.612Z,0.73
2023-04-30T03:46:19.543Z,1.27
2023-04-30T03:47:21.587Z,0.73
2023-04-30T03:48:23.379Z,0.77
2023-04-30T03:49:25.374Z,0.70
2023-04-30T03:50:27.231Z,0.90
2023-04-30T03:51:29.101Z,0.97
2023-04-30T03:52:31.432Z,0.65
2023-04-30T03:53:33.304Z,0.70
2023-04-30T03:54:35.077Z,0.80
2023-04-30T03:55:37.043Z,0.55
2023-04-30T03:56:39.121Z,1.00
2023-04-30T03:57:41.126Z,0.77
2023-04-30T03:58:43.119Z,0.70
2023-04-30T03:59:44.970Z,0.97
2023-04-30T04:00:48.240Z,0.77
2023-04-30T04:01:50.493Z,0.68
2023-04-30T04:02:52.541Z,0.57
2023-04-30T04:03:54.513Z,0.73
2023-04-30T04:04:56.441Z,0.77
2023-04-30T04:05:58.282Z,0.70
2023-04-30T04:07:01.409Z,0.77
2023-04-30T04:08:03.240Z,0.70
2023-04-30T04:09:05.049Z,0.67
2023-04-30T04:10:07.725Z,0.68
2023-04-30T04:11:11.541Z,0.60
2023-04-30T04:12:13.702Z,0.80
2023-04-30T04:13:15.753Z,0.60
2023-04-30T04:14:17.606Z,0.87
2023-04-30T04:15:19.476Z,0.87
2023-04-30T04:16:22.278Z,0.80
2023-04-30T04:17:24.309Z,0.80
2023-04-30T04:18:26.147Z,0.73
2023-04-30T04:19:28.460Z,0.63
2023-04-30T04:20:30.588Z,0.77
2023-04-30T04:21:33.363Z,0.80
2023-04-30T04:22:35.334Z,0.70
2023-04-30T04:23:37.204Z,0.90
2023-04-30T04:24:39.081Z,0.60
2023-04-30T04:25:41.718Z,0.70
2023-04-30T04:26:44.007Z,0.90
2023-04-30T04:27:46.565Z,0.77
2023-04-30T04:28:48.435Z,0.70
2023-04-30T04:29:50.396Z,0.90
2023-04-30T04:30:53.542Z,0.80
2023-04-30T04:31:55.745Z,0.90
2023-04-30T04:32:57.772Z,0.75
2023-04-30T04:34:02.384Z,0.70
2023-04-30T04:35:04.719Z,0.73
2023-04-30T04:36:06.947Z,0.70
2023-04-30T04:37:09.003Z,0.80
2023-04-30T04:38:10.817Z,0.67
2023-04-30T04:39:13.416Z,0.70
2023-04-30T04:40:15.284Z,0.73
2023-04-30T04:41:17.087Z,0.83
2023-04-30T04:42:19.878Z,0.83
2023-04-30T04:43:22.297Z,0.60
2023-04-30T04:44:24.084Z,0.80
2023-04-30T04:45:26.098Z,0.80
2023-04-30T04:46:28.444Z,0.90
2023-04-30T04:47:30.450Z,0.70
2023-04-30T04:48:32.336Z,0.87
2023-04-30T04:49:34.232Z,0.67
2023-04-30T04:50:36.159Z,1.10
2023-04-30T04:51:39.567Z,0.80
2023-04-30T04:52:41.387Z,0.70
2023-04-30T04:53:43.364Z,1.57
2023-04-30T04:54:45.220Z,0.82
2023-04-30T04:55:47.036Z,0.90
2023-04-30T04:56:49.081Z,0.77
2023-04-30T04:57:50.868Z,0.80
2023-04-30T04:58:52.998Z,0.70
2023-04-30T04:59:55.224Z,0.90
2023-04-30T05:00:57.568Z,0.80
2023-04-30T05:01:59.450Z,0.80
2023-04-30T05:03:01.406Z,0.60
2023-04-30T05:04:03.458Z,0.80
2023-04-30T05:05:05.975Z,0.50
2023-04-30T05:06:07.937Z,0.83
2023-04-30T05:07:11.337Z,0.60
2023-04-30T05:08:13.388Z,0.70
2023-04-30T05:09:15.681Z,0.60
2023-04-30T05:10:17.590Z,0.70
2023-04-30T05:11:19.533Z,0.80
2023-04-30T05:12:21.532Z,0.73
2023-04-30T05:13:23.712Z,0.60
2023-04-30T05:14:25.569Z,0.80
2023-04-30T05:15:27.408Z,0.80
2023-04-30T05:16:29.319Z,0.77
2023-04-30T05:17:31.310Z,0.80
2023-04-30T05:18:33.394Z,0.80
2023-04-30T05:19:35.232Z,0.60
2023-04-30T05:20:37.243Z,0.83
2023-04-30T05:21:40.098Z,0.80
2023-04-30T05:22:42.009Z,0.70
2023-04-30T05:23:45.060Z,0.63
2023-04-30T05:24:46.905Z,0.87
2023-04-30T05:25:52.900Z,0.77
2023-04-30T05:26:54.717Z,0.77
2023-04-30T05:27:56.990Z,0.60
2023-04-30T05:28:58.874Z,0.57
2023-04-30T05:30:00.845Z,1.17
2023-04-30T05:31:02.768Z,0.73
2023-04-30T05:32:04.960Z,0.60
2023-04-30T05:33:07.101Z,0.80
2023-04-30T05:34:08.930Z,0.80
2023-04-30T05:35:10.922Z,0.80
2023-04-30T05:36:13.516Z,0.87
2023-04-30T05:37:17.612Z,0.80
2023-04-30T05:38:19.474Z,0.87
2023-04-30T05:39:21.269Z,0.50
2023-04-30T05:40:23.137Z,0.80
2023-04-30T05:41:25.012Z,0.67
2023-04-30T05:42:26.928Z,0.75
2023-04-30T05:43:28.769Z,0.63
2023-04-30T05:44:30.598Z,0.60
2023-04-30T05:45:33.445Z,0.70
2023-04-30T05:46:35.525Z,0.90
2023-04-30T05:47:37.535Z,0.63
2023-04-30T05:48:39.924Z,1.17
2023-04-30T05:49:41.978Z,1.23
2023-04-30T05:50:43.885Z,0.80
2023-04-30T05:51:45.815Z,1.83
2023-04-30T05:52:47.622Z,2.00
2023-04-30T05:53:49.542Z,0.90
2023-04-30T05:54:51.396Z,0.97
2023-04-30T05:55:53.220Z,0.70
2023-04-30T05:56:55.106Z,0.70
2023-04-30T05:57:57.126Z,1.63
2023-04-30T05:58:58.996Z,1.23
2023-04-30T06:00:00.959Z,0.90
2023-04-30T06:01:03.086Z,0.80
2023-04-30T06:02:05.183Z,0.73
2023-04-30T06:03:07.885Z,0.80
2023-04-30T06:04:09.817Z,0.83
2023-04-30T06:05:12.882Z,0.80
2023-04-30T06:06:16.782Z,0.93
2023-04-30T06:07:18.637Z,0.90
2023-04-30T06:08:20.480Z,0.93
2023-04-30T06:09:22.353Z,1.00
2023-04-30T06:10:24.395Z,0.90
2023-04-30T06:11:26.332Z,2.13
2023-04-30T06:12:28.208Z,1.13
2023-04-30T06:13:30.169Z,0.70
2023-04-30T06:14:32.485Z,0.93
2023-04-30T06:15:34.396Z,1.85
2023-04-30T06:16:36.288Z,1.00
2023-04-30T06:17:38.344Z,0.80
2023-04-30T06:18:40.355Z,0.80
2023-04-30T06:19:42.294Z,0.85
2023-04-30T06:20:44.110Z,0.70
2023-04-30T06:21:45.923Z,1.10
2023-04-30T06:22:47.707Z,1.17
2023-04-30T06:23:49.526Z,1.08
2023-04-30T06:24:51.374Z,0.87
2023-04-30T06:25:53.279Z,0.90
2023-04-30T06:26:55.101Z,0.82
2023-04-30T06:27:57.014Z,0.80
2023-04-30T06:28:58.894Z,0.80
2023-04-30T06:30:01.112Z,1.00
2023-04-30T06:31:03.710Z,0.97
2023-04-30T06:32:08.359Z,0.90
2023-04-30T06:33:10.482Z,0.83
2023-04-30T06:34:12.459Z,0.90
2023-04-30T06:35:14.659Z,0.90
2023-04-30T06:36:16.682Z,0.70
2023-04-30T06:37:18.834Z,0.90
2023-04-30T06:38:20.985Z,0.70
2023-04-30T06:39:22.836Z,0.63
2023-04-30T06:40:24.653Z,0.80
2023-04-30T06:41:26.489Z,0.97
2023-04-30T06:42:28.401Z,0.80
2023-04-30T06:43:30.549Z,1.00
2023-04-30T06:44:33.097Z,0.83
2023-04-30T06:45:35.507Z,1.90
2023-04-30T06:46:37.462Z,0.90
2023-04-30T06:47:39.540Z,0.90
2023-04-30T06:48:41.827Z,1.07
2023-04-30T06:49:43.708Z,0.73
2023-04-30T06:50:45.744Z,1.10
2023-04-30T06:51:47.613Z,0.80
2023-04-30T06:52:49.574Z,0.80
2023-04-30T06:53:51.451Z,1.00
2023-04-30T06:54:53.249Z,3.03
2023-04-30T06:55:55.862Z,0.90
2023-04-30T06:56:57.772Z,1.00
2023-04-30T06:57:59.906Z,0.70
2023-04-30T06:59:01.730Z,0.80
2023-04-30T07:00:07.433Z,1.77
2023-04-30T07:01:09.460Z,0.90
2023-04-30T07:02:11.644Z,0.83
2023-04-30T07:03:13.923Z,0.60
2023-04-30T07:04:15.804Z,1.00
2023-04-30T07:05:18.639Z,0.73
2023-04-30T07:06:21.646Z,0.93
2023-04-30T07:07:23.835Z,0.75
2023-04-30T07:08:25.736Z,1.17
2023-04-30T07:09:28.986Z,1.03
2023-04-30T07:10:31.712Z,1.20
2023-04-30T07:11:33.606Z,2.40
2023-04-30T07:12:35.423Z,1.40
2023-04-30T07:13:37.346Z,1.30
2023-04-30T07:14:39.509Z,1.10
2023-04-30T07:15:42.207Z,3.75
2023-04-30T07:16:45.260Z,1.83
2023-04-30T07:17:47.137Z,1.77
2023-04-30T07:18:49.172Z,1.43
2023-04-30T07:19:51.030Z,1.10
2023-04-30T07:20:52.954Z,0.90
2023-04-30T07:21:54.849Z,0.80
2023-04-30T07:22:56.656Z,1.17
2023-04-30T07:23:58.570Z,1.13
2023-04-30T07:25:00.954Z,1.80
2023-04-30T07:26:02.988Z,1.00
2023-04-30T07:27:05.143Z,1.00
2023-04-30T07:28:06.989Z,0.90
2023-04-30T07:29:08.901Z,1.33
2023-04-30T07:30:11.114Z,1.40
2023-04-30T07:31:13.082Z,1.20
2023-04-30T07:32:16.380Z,1.10
2023-04-30T07:33:18.335Z,1.10
2023-04-30T07:34:20.213Z,1.00
2023-04-30T07:35:22.190Z,1.00
2023-04-30T07:36:24.565Z,1.17
2023-04-30T07:37:27.027Z,1.13
2023-04-30T07:38:29.373Z,2.23
2023-04-30T07:39:31.356Z,1.67
2023-04-30T07:40:36.166Z,1.23
2023-04-30T07:41:38.461Z,1.13
2023-04-30T07:42:42.228Z,1.70
2023-04-30T07:43:44.545Z,1.30
2023-04-30T07:44:46.478Z,1.40
2023-04-30T07:45:49.645Z,6.47
2023-04-30T07:46:51.744Z,60.33
2023-04-30T07:47:53.718Z,233.20
2023-04-30T07:48:55.646Z,350.73
2023-04-30T07:49:57.804Z,227.53
2023-04-30T07:50:59.844Z,202.38
2023-04-30T07:52:01.808Z,164.40
2023-04-30T07:53:05.068Z,166.50
2023-04-30T07:54:06.925Z,137.70
2023-04-30T07:55:09.528Z,132.33
2023-04-30T07:56:11.428Z,124.67
2023-04-30T07:57:13.211Z,94.13
2023-04-30T07:58:15.235Z,87.13
2023-04-30T07:59:17.665Z,77.95
2023-04-30T08:00:19.582Z,93.80
2023-04-30T08:01:21.534Z,77.47
2023-04-30T08:02:23.444Z,75.17
2023-04-30T08:03:25.716Z,57.42
2023-04-30T08:04:27.732Z,60.23
2023-04-30T08:05:29.673Z,58.60
2023-04-30T08:06:31.651Z,44.90
2023-04-30T08:07:33.675Z,53.03
2023-04-30T08:08:35.648Z,41.40
2023-04-30T08:09:37.521Z,46.60
2023-04-30T08:10:41.795Z,43.07
2023-04-30T08:11:43.676Z,40.03
2023-04-30T08:12:45.631Z,34.60
2023-04-30T08:13:47.482Z,37.43
2023-04-30T08:14:49.365Z,38.15
2023-04-30T08:15:51.286Z,34.93
2023-04-30T08:16:53.191Z,29.93
2023-04-30T08:17:55.116Z,35.50
2023-04-30T08:18:57.094Z,29.80
2023-04-30T08:19:58.986Z,29.02
2023-04-30T08:21:01.551Z,28.00
2023-04-30T08:22:03.589Z,33.73
2023-04-30T08:23:05.866Z,23.77
2023-04-30T08:24:07.693Z,24.17
2023-04-30T08:25:12.545Z,22.77
2023-04-30T08:26:14.413Z,29.03
2023-04-30T08:27:16.948Z,28.80
2023-04-30T08:28:18.874Z,25.67
2023-04-30T08:29:20.887Z,22.60
2023-04-30T08:30:22.840Z,27.40
2023-04-30T08:31:24.843Z,28.67
2023-04-30T08:32:27.800Z,26.27
2023-04-30T08:33:29.724Z,22.73
2023-04-30T08:34:32.170Z,23.77
2023-04-30T08:35:34.033Z,24.13
2023-04-30T08:36:35.890Z,28.80
2023-04-30T08:37:37.737Z,25.63
2023-04-30T08:38:39.633Z,24.15
2023-04-30T08:39:41.518Z,29.53
2023-04-30T08:40:56.825Z,21.00
2023-04-30T08:42:04.186Z,27.37
2023-04-30T08:43:08.950Z,15.55
2023-04-30T08:44:13.046Z,18.13
2023-04-30T08:45:16.227Z,14.05
2023-04-30T08:46:20.122Z,18.23
2023-04-30T08:47:24.244Z,18.30
2023-04-30T08:48:28.171Z,16.00
2023-04-30T08:49:32.871Z,14.60
2023-04-30T08:50:35.196Z,20.20
2023-04-30T08:51:37.510Z,14.68
2023-04-30T08:52:40.212Z,12.13
2023-04-30T08:53:44.177Z,9.60
2023-04-30T08:54:48.462Z,11.63
2023-04-30T08:55:50.287Z,9.23
2023-04-30T08:56:52.146Z,9.68
2023-04-30T08:57:54.605Z,9.50
2023-04-30T08:58:56.396Z,12.77
2023-04-30T08:59:58.264Z,12.87
2023-04-30T09:01:01.557Z,11.20
2023-04-30T09:02:03.511Z,9.40
2023-04-30T09:03:07.487Z,8.27
2023-04-30T09:04:09.648Z,6.57
2023-04-30T09:05:14.191Z,8.73
2023-04-30T09:06:17.677Z,9.65
2023-04-30T09:07:23.589Z,8.43
2023-04-30T09:08:50.207Z,8.53
2023-04-30T09:09:55.158Z,8.73
2023-04-30T09:10:57.151Z,4.33
2023-04-30T09:12:19.988Z,5.87
2023-04-30T09:13:22.101Z,4.57
2023-04-30T09:14:27.547Z,3.97
2023-04-30T09:15:31.583Z,6.23
2023-04-30T09:16:54.199Z,5.10
2023-04-30T09:18:14.338Z,6.93
2023-04-30T09:19:28.578Z,5.67
2023-04-30T09:20:30.488Z,3.37
2023-04-30T09:21:37.238Z,4.13
2023-04-30T09:22:42.444Z,3.70
2023-04-30T09:24:03.051Z,3.73
2023-04-30T09:25:06.241Z,3.07
2023-04-30T09:26:08.308Z,3.27
2023-04-30T09:27:22.914Z,4.33
2023-04-30T09:28:26.632Z,3.38
2023-04-30T09:29:46.591Z,3.33
2023-04-30T09:30:48.471Z,3.30
2023-04-30T09:31:50.563Z,3.40
2023-04-30T09:32:56.789Z,3.87
2023-04-30T09:33:58.901Z,2.93
2023-04-30T09:35:00.925Z,4.35
2023-04-30T09:36:09.801Z,3.93
2023-04-30T09:37:12.373Z,4.20
2023-04-30T09:38:32.361Z,3.10
2023-04-30T09:39:47.284Z,4.30
2023-04-30T09:40:49.186Z,3.00
2023-04-30T09:41:54.477Z,3.80
2023-04-30T09:43:00.565Z,4.17
2023-04-30T09:44:02.405Z,2.80
2023-04-30T09:45:05.911Z,4.17
2023-04-30T09:46:07.845Z,2.67
2023-04-30T09:47:21.811Z,3.93
2023-04-30T09:48:29.280Z,3.60
2023-04-30T09:49:32.045Z,2.23
2023-04-30T09:50:43.303Z,2.92
2023-04-30T09:52:00.013Z,2.77
2023-04-30T09:53:10.026Z,4.27
2023-04-30T09:54:13.362Z,2.53
2023-04-30T09:55:15.300Z,3.63
2023-04-30T09:56:24.294Z,3.45
2023-04-30T09:57:32.389Z,2.60
2023-04-30T09:58:38.429Z,4.93
2023-04-30T09:59:46.028Z,2.73
2023-04-30T10:00:51.557Z,2.87
2023-04-30T10:01:55.421Z,3.13
2023-04-30T10:03:00.570Z,2.67
2023-04-30T10:04:03.593Z,3.80
2023-04-30T10:05:06.680Z,2.60
2023-04-30T10:06:13.006Z,3.67
2023-04-30T10:07:23.003Z,2.70
2023-04-30T10:08:28.915Z,3.37
2023-04-30T10:10:03.475Z,2.50
2023-04-30T10:11:08.336Z,2.70
2023-04-30T10:12:16.464Z,2.60
2023-04-30T10:13:21.742Z,2.80
2023-04-30T10:14:29.706Z,3.83
2023-04-30T10:15:40.061Z,3.17
2023-04-30T10:17:15.010Z,2.63
2023-04-30T10:18:29.039Z,2.60
2023-04-30T10:19:33.964Z,2.47
2023-04-30T10:20:37.471Z,3.17
2023-04-30T10:21:44.408Z,2.70
2023-04-30T10:22:48.394Z,2.80
2023-04-30T10:23:51.693Z,2.43
2023-04-30T10:24:54.426Z,4.33
2023-04-30T10:25:58.852Z,2.33
2023-04-30T10:27:01.222Z,2.57
2023-04-30T10:28:04.825Z,2.60
2023-04-30T10:29:08.368Z,2.40
2023-04-30T10:30:12.024Z,6.93
2023-04-30T10:31:14.780Z,2.77
2023-04-30T10:32:17.425Z,2.73
2023-04-30T10:33:55.674Z,2.23
2023-04-30T10:35:15.763Z,5.33
2023-04-30T10:36:48.727Z,2.27
2023-04-30T10:38:02.223Z,2.47
2023-04-30T10:39:05.590Z,2.37
2023-04-30T10:40:09.872Z,1.90
2023-04-30T10:41:11.844Z,1.80
2023-04-30T10:42:13.735Z,2.63
2023-04-30T10:43:22.092Z,2.13
2023-04-30T10:44:27.505Z,4.30
2023-04-30T10:45:46.198Z,3.27
2023-04-30T10:46:48.795Z,2.43
2023-04-30T10:47:50.698Z,2.90
2023-04-30T10:48:55.804Z,2.63
2023-04-30T10:50:09.600Z,2.60
2023-04-30T10:51:11.516Z,2.20
2023-04-30T10:52:13.405Z,2.23
2023-04-30T10:53:19.724Z,2.10
2023-04-30T10:54:37.058Z,2.53
2023-04-30T10:55:57.648Z,2.70
2023-04-30T10:57:17.862Z,2.00
2023-04-30T10:58:34.899Z,2.23
2023-04-30T10:59:37.090Z,2.03
2023-04-30T11:00:39.095Z,2.00
2023-04-30T11:02:01.521Z,3.87
2023-04-30T11:03:04.263Z,2.00
2023-04-30T11:04:11.405Z,2.10
2023-04-30T11:05:18.107Z,1.73
2023-04-30T11:06:26.596Z,2.20
2023-04-30T11:07:28.994Z,2.10
2023-04-30T11:08:36.822Z,1.70
2023-04-30T11:09:48.589Z,3.03
2023-04-30T11:11:01.733Z,2.23
2023-04-30T11:12:16.122Z,2.07
2023-04-30T11:13:17.984Z,2.13
2023-04-30T11:14:23.467Z,2.00
2023-04-30T11:15:27.722Z,2.20
2023-04-30T11:16:35.350Z,2.17
2023-04-30T11:17:38.606Z,4.00
2023-04-30T11:18:47.409Z,2.00
2023-04-30T11:19:54.343Z,2.63
2023-04-30T11:20:58.075Z,2.20
2023-04-30T11:22:05.781Z,2.80
2023-04-30T11:23:28.170Z,1.87
2023-04-30T11:25:04.523Z,2.00
2023-04-30T11:26:08.013Z,3.22
2023-04-30T11:27:13.992Z,2.00
2023-04-30T11:28:26.902Z,2.20
2023-04-30T11:29:29.301Z,1.70
2023-04-30T11:30:32.484Z,1.77
2023-04-30T11:31:35.176Z,2.30
2023-04-30T11:32:39.275Z,1.95
2023-04-30T11:33:41.411Z,2.13
2023-04-30T11:34:47.018Z,4.43
2023-04-30T11:35:53.209Z,1.83
2023-04-30T11:37:00.945Z,2.40
2023-04-30T11:38:07.033Z,2.03
2023-04-30T11:39:10.627Z,2.27
2023-04-30T11:40:14.617Z,2.10
2023-04-30T11:41:16.527Z,2.20
2023-04-30T11:42:19.652Z,2.57
2023-04-30T11:43:23.874Z,2.10
2023-04-30T11:44:29.021Z,2.17
2023-04-30T11:45:30.851Z,2.50
2023-04-30T11:46:32.768Z,2.00
2023-04-30T11:47:45.914Z,2.43
2023-04-30T11:48:48.043Z,1.93
2023-04-30T11:49:52.968Z,1.90
2023-04-30T11:50:54.996Z,2.90
2023-04-30T11:51:56.853Z,1.83
2023-04-30T11:53:05.246Z,3.37
2023-04-30T11:54:08.816Z,2.20
2023-04-30T11:55:16.591Z,1.87
2023-04-30T11:56:26.156Z,1.92
2023-04-30T11:57:40.709Z,1.60
2023-04-30T11:58:42.571Z,1.83
2023-04-30T11:59:44.486Z,2.00
2023-04-30T12:00:46.376Z,1.53
2023-04-30T12:01:48.460Z,1.60
2023-04-30T12:02:50.654Z,2.03
2023-04-30T12:03:55.231Z,1.50
2023-04-30T12:04:58.601Z,2.10
2023-04-30T12:06:01.609Z,2.03
2023-04-30T12:07:03.975Z,1.93
2023-04-30T12:08:09.064Z,1.80
2023-04-30T12:09:11.970Z,2.05
2023-04-30T12:10:14.559Z,1.60
2023-04-30T12:11:25.847Z,1.37
2023-04-30T12:12:29.837Z,1.80
2023-04-30T12:13:32.190Z,2.07
2023-04-30T12:14:36.506Z,1.43
2023-04-30T12:15:39.680Z,1.50
2023-04-30T12:16:52.445Z,1.98
2023-04-30T12:17:57.379Z,1.90
2023-04-30T12:18:59.335Z,1.67
2023-04-30T12:20:01.405Z,1.60
2023-04-30T12:21:04.265Z,2.50
2023-04-30T12:22:06.571Z,1.80
2023-04-30T12:23:09.324Z,1.83
2023-04-30T12:24:16.647Z,1.97
2023-04-30T12:25:22.308Z,1.90
2023-04-30T12:26:24.196Z,1.80
2023-04-30T12:27:26.102Z,2.13
2023-04-30T12:28:28.685Z,2.87
2023-04-30T12:29:30.523Z,3.23
2023-04-30T12:30:32.566Z,2.30
2023-04-30T12:31:34.550Z,1.48
2023-04-30T12:32:50.019Z,1.50
2023-04-30T12:33:56.504Z,3.57
2023-04-30T12:34:59.965Z,1.92
2023-04-30T12:36:02.205Z,1.63
2023-04-30T12:37:04.090Z,2.10
2023-04-30T12:38:09.597Z,3.23
2023-04-30T12:39:17.331Z,1.63
2023-04-30T12:40:28.050Z,2.20
2023-04-30T12:41:30.405Z,1.88
2023-04-30T12:42:34.264Z,1.58
2023-04-30T12:43:36.077Z,1.77
2023-04-30T12:44:45.314Z,1.73
2023-04-30T12:45:55.804Z,2.97
2023-04-30T12:47:00.764Z,2.20
2023-04-30T12:48:03.139Z,1.97
2023-04-30T12:49:05.040Z,1.83
2023-04-30T12:50:13.175Z,1.90
2023-04-30T12:51:20.266Z,1.88
2023-04-30T12:52:26.669Z,1.90
2023-04-30T12:53:29.750Z,1.90
2023-04-30T12:54:36.131Z,1.67
2023-04-30T12:55:39.289Z,1.87
2023-04-30T12:57:08.134Z,1.70
2023-04-30T12:58:14.412Z,3.53
2023-04-30T12:59:17.238Z,1.70
2023-04-30T13:00:19.106Z,2.57
2023-04-30T13:01:24.232Z,1.73
2023-04-30T13:02:29.573Z,2.05
2023-04-30T13:03:31.637Z,1.70
2023-04-30T13:04:34.580Z,1.85
2023-04-30T13:05:36.516Z,1.90
2023-04-30T13:06:38.738Z,1.73
2023-04-30T13:07:40.827Z,3.53
2023-04-30T13:08:57.034Z,1.93
2023-04-30T13:10:00.990Z,1.73
2023-04-30T13:11:04.296Z,1.83
2023-04-30T13:12:06.953Z,1.77
2023-04-30T13:13:08.817Z,1.73
2023-04-30T13:14:11.397Z,1.73
2023-04-30T13:15:13.318Z,1.53
2023-04-30T13:16:15.255Z,2.70
2023-04-30T13:17:17.589Z,1.50
2023-04-30T13:18:19.484Z,1.70
2023-04-30T13:19:21.540Z,1.77
2023-04-30T13:20:24.936Z,2.50
2023-04-30T13:21:27.909Z,2.00
2023-04-30T13:22:29.786Z,1.70
2023-04-30T13:23:35.894Z,1.80
2023-04-30T13:24:43.312Z,1.65
2023-04-30T13:25:46.511Z,1.63
2023-04-30T13:26:48.799Z,1.98
2023-04-30T13:27:50.753Z,1.85
2023-04-30T13:28:52.688Z,1.50
2023-04-30T13:29:54.625Z,1.70
2023-04-30T13:30:56.800Z,1.90
2023-04-30T13:31:59.175Z,1.50
2023-04-30T13:33:01.238Z,1.60
2023-04-30T13:34:03.124Z,1.80
2023-04-30T13:35:05.595Z,3.10
2023-04-30T13:36:07.768Z,1.87
2023-04-30T13:37:09.627Z,1.63
2023-04-30T13:38:11.897Z,1.45
2023-04-30T13:39:13.794Z,1.70
2023-04-30T13:40:16.028Z,1.65
2023-04-30T13:41:17.862Z,1.63
2023-04-30T13:42:19.797Z,1.52
2023-04-30T13:43:21.624Z,1.80
2023-04-30T13:44:23.503Z,1.60
2023-04-30T13:45:25.497Z,1.63
2023-04-30T13:46:27.406Z,1.57
2023-04-30T13:47:29.351Z,1.80
2023-04-30T13:48:31.386Z,1.40
2023-04-30T13:49:36.179Z,2.95
2023-04-30T13:50:37.993Z,1.53
2023-04-30T13:51:39.925Z,1.90
2023-04-30T13:52:41.746Z,1.55
2023-04-30T13:53:43.664Z,1.80
2023-04-30T13:54:45.565Z,2.77
2023-04-30T13:55:47.421Z,1.67
2023-04-30T13:56:49.362Z,1.63
2023-04-30T13:57:51.296Z,1.60
2023-04-30T13:58:53.207Z,1.80
2023-04-30T13:59:55.244Z,1.80
2023-04-30T14:00:57.269Z,1.45
2023-04-30T14:01:59.232Z,1.70
2023-04-30T14:03:01.606Z,1.70
2023-04-30T14:04:03.583Z,1.45
2023-04-30T14:05:06.931Z,1.40
2023-04-30T14:06:09.063Z,2.28
2023-04-30T14:07:11.622Z,1.98
2023-04-30T14:08:13.724Z,1.43
2023-04-30T14:09:15.706Z,2.00
2023-04-30T14:10:17.651Z,1.83
2023-04-30T14:11:19.465Z,2.22
2023-04-30T14:12:22.337Z,1.45
2023-04-30T14:13:24.179Z,1.50